YBBNYMHB

Guest
Details From YBBN - Brisbane Intl
To YMHB - Hobart
Flight Number -
Tags decoded
Created
Modified
Stats Distance 970 nm / 1,797 km
Max Altitude 0 ft / 0 m
Waypoints 5
Social Downloads 0
Likes 0
Share VATSIM

Download

Looking for another format? Having issues loading an existing format? Contact us
Advertisement - Login to hide

Notes

Requested: YBBN HUUGO H62 ADMAR Q78 OLTIN W180 TESAT H65 WOL H20 MOTRA W407 HB YMHB Unmatched points: HUUGO H62 Q78 OLTIN W180 TESAT H65 H20 MOTRA W407

Route

YBBN ADMAR WOL HB YMHB

ID Type Via Altitude Latitude Longitude Leg Dist Tot Dist Heading (true) Name
O YBBN APT - 0 ft / 0 m -27.37571˚ 153.12771˚ - 0 nm - Brisbane Intl
ADMAR FIX - 0 ft / 0 m -30.32278˚ 151.91187˚ 188 nm 188 nm 200° / 200° -
WOL NDB - 0 ft / 0 m -34.55793˚ 150.79099˚ 260 nm 448 nm 192° / 193° WOLLONGONG NDB
HB NDB - 0 ft / 0 m -42.81230˚ 147.47945˚ 519 nm 968 nm 196° / 198° HOBART NDB
O YMHB APT - 0 ft / 0 m -42.83617˚ 147.51180˚ 2 nm 970 nm 135° / 135° Hobart

Altitude Profile

Advertisement - Login to hide

Weather


0- 5 10 15 20 25 30 35+ Temperature / ° C

Clouds and Precipitation
Forecast for 2017-12-15 00:00 UTC. Updated 2 hours ago

Ground ~20,000 ft ~40,000 ft Winds

YBBN

Details ICAO YBBN (BNE)
Name Brisbane Intl
Region Australia
Timezone Australia/Brisbane (UTC+10.0)
Stats Elevation 12 ft / 4 m (AMSL)
Location -27.375714° 153.127710°
Runways 2
Magnetic Variation 10.985° E

METAR

YBBN 150100Z 04008KT 9999 FEW036 28/18 Q1013 NOSIG

Decode

TAF

TAF YBBN 142330Z 1500/1606 04010KT 9999 FEW035 FM151800 20005KT 9999 SCT025 FM152200 06010KT 9999 FEW035

Decode

Departure Runways

ID Width Length Bearing (true) Bearing (mag) Surface Threshold Offset Overrun Length
01 148 ft / 45 m 11,805 ft / 3,598 m 26.93° 15.95° Asphalt 197 ft / 60 m 0 ft / 0 m
14 98 ft / 30 m 5,787 ft / 1,764 m 145.66° 134.68° Asphalt 197 ft / 60 m 0 ft / 0 m
19 148 ft / 45 m 11,805 ft / 3,598 m 206.92° 195.94° Asphalt 0 ft / 0 m 0 ft / 0 m
32 98 ft / 30 m 5,787 ft / 1,764 m 325.66° 314.68° Asphalt 197 ft / 60 m 0 ft / 0 m

YMHB

Details ICAO YMHB (HBA)
Name Hobart
Region Australia
Timezone Australia/Hobart (UTC+11.0)
Stats Elevation 12 ft / 4 m (AMSL)
Location -42.836167° 147.511798°
Runways 1
Magnetic Variation 15.099° E

METAR

YMHB 150100Z 27007KT 9999 FEW055 BKN250 19/03 Q1009

Decode

TAF

TAF YMHB 142304Z 1500/1524 31007KT CAVOK FM150100 16014KT 9999 FEW040 FM150800 32010KT 9999 FEW040

Decode

Destination Runways

ID Width Length Bearing (true) Bearing (mag) Surface Threshold Offset Overrun Length
12 148 ft / 45 m 7,379 ft / 2,249 m 135.11° 120.01° Asphalt 0 ft / 0 m 0 ft / 0 m
30 148 ft / 45 m 7,379 ft / 2,249 m 315.09° 299.99° Asphalt 0 ft / 0 m 0 ft / 0 m

Approach Navaids

Runway Type Ident Frequency Range Bearing (true) Bearing (mag) Slope Elevation
12 Localiser IHB 109.90 MHz 18 nm / 33 km 135.13° 120.03° - 12 ft / 4 m (AMSL)
12 Glidescope IHB 109.90 MHz 10 nm / 19 km 135.10° 120.00° 3.00° 12 ft / 4 m (AMSL)

Popular Alternatives